Star Princess — ZCDD6 — position and weather

sailwx.info

Track history (hours):
 
Tides and Currents Weather Stations Pressure Air Temp Water Temp Dewpoint Dewpoint Depression Visibility Wind Speed Wind Dir Waves Ship Positions

Star Princess

Operator: Princess Cruises

Last reported at 2015-Sep-01 05:25 UTC. Time now 2015-Sep-01 16:04 UTC.
Position N 58°13' W 135°26'.

Length 289.6 m; beam 36 m; draft 8.4 m.

Type: Ship. MMSI: 310361000.

Date/timePositionNaut miles runAvg speedWind from/ knotsBaromVisibWave heightAir tempDewpointWater temp
2015-Sep-01 05:25N 58°13' W 135°26'1011.2
2015-Sep-01 04:33N 58°17' W 135°42'1010.3
2015-Sep-01 03:33N 58°23' W 135°58'1212.2
2015-Sep-01 02:33N 58°35' W 136°04'1212.2
2015-Sep-01 01:33N 58°45' W 136°18'6 0.9
2015-Aug-31 19:16N 58°48' W 136°27'1115.0
2015-Aug-31 18:33N 58°41' W 136°12'1413.7
2015-Aug-31 17:33N 58°28' W 136°02'9 8.7
2015-Aug-31 16:30N 58°19' W 136°06'  
2015-Aug-28 00:07N 58°19' W 136°09'813.5
2015-Aug-27 23:33N 58°25' W 135°59'1312.9
2015-Aug-27 22:33N 58°38' W 136°06'16 2.5
2015-Aug-27 16:24N 58°48' W 136°27'1618.6
2015-Aug-27 15:34N 58°37' W 136°06'1413.6
2015-Aug-27 14:34N 58°25' W 135°57'1514.5
2015-Aug-27 13:33N 58°16' W 135°35'  
2015-Aug-23 18:33N 51°24' W 128°34'1515.1
2015-Aug-23 17:33N 51°12' W 128°19'7813.0
2015-Aug-23 11:32N 50°30' W 126°34'4812.1
2015-Aug-23 07:33N 50°14' W 125°23'1211.8
2015-Aug-23 06:33N 50°03' W 125°15'9 8.7
2015-Aug-23 05:33N 49°56' W 125°07'1515.3
2015-Aug-23 04:33N 49°46' W 124°50'1716.7
2015-Aug-23 03:33N 49°33' W 124°33'1616.1
2015-Aug-23 02:33N 49°24' W 124°12'1616.4
2015-Aug-23 01:33N 49°20' W 123°48'1616.5
2015-Aug-23 00:34N 49°18' W 123°23'1110.8
2015-Aug-22 23:33N 49°17' W 123°06'0 0.0
2015-Aug-22 22:34N 49°17' W 123°06'0 0.0
2015-Aug-22 21:33N 49°17' W 123°06'0 0.0
2015-Aug-22 20:33N 49°17' W 123°06'0 0.0
2015-Aug-22 19:32N 49°17' W 123°06'0 0.0
2015-Aug-22 18:32N 49°17' W 123°06'0 0.0
2015-Aug-22 17:31N 49°17' W 123°06'0 0.0
2015-Aug-22 16:31N 49°17' W 123°06'0 0.0
2015-Aug-22 15:34N 49°17' W 123°06'0 0.0
2015-Aug-22 14:33N 49°17' W 123°06'0 0.1
2015-Aug-22 13:33N 49°17' W 123°06'5 5.3
2015-Aug-22 12:33N 49°19' W 123°14'8 8.5
2015-Aug-22 11:33N 49°18' W 123°27'1111.0
2015-Aug-22 10:33N 49°18' W 123°44'1414.1
2015-Aug-22 09:34N 49°22' W 124°05'1515.3
2015-Aug-22 08:33N 49°28' W 124°26'1515.0
2015-Aug-22 07:33N 49°40' W 124°41'1515.1
2015-Aug-22 06:33N 49°51' W 124°57'1413.9
2015-Aug-22 05:33N 50°00' W 125°13'  
Track history (hours):
 
Tides and Currents Weather Stations Pressure Air Temp Water Temp Dewpoint Dewpoint Depression Visibility Wind Speed Wind Dir Waves Ship Positions

Star Princess

Operator: Princess Cruises

Last reported at 2015-Sep-01 05:25 UTC. Time now 2015-Sep-01 16:04 UTC.
Position N 58°13' W 135°26'.

Length 289.6 m; beam 36 m; draft 8.4 m.

Type: Ship. MMSI: 310361000.

Date/timePositionNaut miles runAvg speedWind from/ knotsBaromVisibWave heightAir tempDewpointWater temp
2015-Sep-01 05:25N 58°13' W 135°26'1011.2
2015-Sep-01 04:33N 58°17' W 135°42'1010.3
2015-Sep-01 03:33N 58°23' W 135°58'1212.2
2015-Sep-01 02:33N 58°35' W 136°04'1212.2
2015-Sep-01 01:33N 58°45' W 136°18'6 0.9
2015-Aug-31 19:16N 58°48' W 136°27'1115.0
2015-Aug-31 18:33N 58°41' W 136°12'1413.7
2015-Aug-31 17:33N 58°28' W 136°02'9 8.7
2015-Aug-31 16:30N 58°19' W 136°06'  
2015-Aug-28 00:07N 58°19' W 136°09'813.5
2015-Aug-27 23:33N 58°25' W 135°59'1312.9
2015-Aug-27 22:33N 58°38' W 136°06'16 2.5
2015-Aug-27 16:24N 58°48' W 136°27'1618.6
2015-Aug-27 15:34N 58°37' W 136°06'1413.6
2015-Aug-27 14:34N 58°25' W 135°57'1514.5
2015-Aug-27 13:33N 58°16' W 135°35'  
2015-Aug-23 18:33N 51°24' W 128°34'1515.1
2015-Aug-23 17:33N 51°12' W 128°19'7813.0
2015-Aug-23 11:32N 50°30' W 126°34'4812.1
2015-Aug-23 07:33N 50°14' W 125°23'1211.8
2015-Aug-23 06:33N 50°03' W 125°15'9 8.7
2015-Aug-23 05:33N 49°56' W 125°07'1515.3
2015-Aug-23 04:33N 49°46' W 124°50'1716.7
2015-Aug-23 03:33N 49°33' W 124°33'1616.1
2015-Aug-23 02:33N 49°24' W 124°12'1616.4
2015-Aug-23 01:33N 49°20' W 123°48'1616.5
2015-Aug-23 00:34N 49°18' W 123°23'1110.8
2015-Aug-22 23:33N 49°17' W 123°06'0 0.0
2015-Aug-22 22:34N 49°17' W 123°06'0 0.0
2015-Aug-22 21:33N 49°17' W 123°06'0 0.0
2015-Aug-22 20:33N 49°17' W 123°06'0 0.0
2015-Aug-22 19:32N 49°17' W 123°06'0 0.0
2015-Aug-22 18:32N 49°17' W 123°06'0 0.0
2015-Aug-22 17:31N 49°17' W 123°06'0 0.0
2015-Aug-22 16:31N 49°17' W 123°06'0 0.0
2015-Aug-22 15:34N 49°17' W 123°06'0 0.0
2015-Aug-22 14:33N 49°17' W 123°06'0 0.1
2015-Aug-22 13:33N 49°17' W 123°06'5 5.3
2015-Aug-22 12:33N 49°19' W 123°14'8 8.5
2015-Aug-22 11:33N 49°18' W 123°27'1111.0
2015-Aug-22 10:33N 49°18' W 123°44'1414.1
2015-Aug-22 09:34N 49°22' W 124°05'1515.3
2015-Aug-22 08:33N 49°28' W 124°26'1515.0
2015-Aug-22 07:33N 49°40' W 124°41'1515.1
2015-Aug-22 06:33N 49°51' W 124°57'1413.9
2015-Aug-22 05:33N 50°00' W 125°13'  

Dump ship's entire track history